Observation data for Ralls on 05/26/2019      Previous  Date  Next       Current Mesonet Observations  Soil Data  Daily Summary Page  Observations in Plain Language
KRLS 260500Z 15008KT 21/17 A2997 RMK A01 T02060172  RH  085%=      5-min Rain = 0
KRLS 260505Z 15008KT 21/17 A2997 RMK A01 T02050171  RH  085%=      5-min Rain = 0
KRLS 260510Z 15007KT 20/17 A2998 RMK A01 T02040170  RH  085%=      5-min Rain = 0
KRLS 260515Z 14007KT 20/17 A2997 RMK A01 T02020170  RH  086%=      5-min Rain = 0
KRLS 260520Z 14006KT 20/17 A2997 RMK A01 T01990169  RH  087%=      5-min Rain = 0
KRLS 260525Z 13005KT 20/17 A2997 RMK A01 T01980169  RH  087%=      5-min Rain = 0
KRLS 260530Z 12006KT 20/17 A2997 RMK A01 T01960168  RH  088%=      5-min Rain = 0
KRLS 260535Z 12006KT 20/17 A2997 RMK A01 T01950168  RH  089%=      5-min Rain = 0
KRLS 260540Z 12006KT 20/17 A2997 RMK A01 T01950168  RH  089%=      5-min Rain = 0
KRLS 260545Z 12006KT 19/17 A2997 RMK A01 T01940168  RH  089%=      5-min Rain = 0
KRLS 260550Z 12006KT 19/17 A2997 RMK A01 T01930168  RH  090%=      5-min Rain = 0
KRLS 260555Z 11006KT 19/17 A2997 RMK A01 T01920167  RH  090%=      5-min Rain = 0
KRLS 260600Z 12007KT 19/17 A2997 RMK A01 T01930169  RH  090%=      5-min Rain = 0
KRLS 260605Z 12007KT 19/17 A2997 RMK A01 T01940169  RH  090%=      5-min Rain = 0
KRLS 260610Z 12007KT 19/17 A2997 RMK A01 T01940169  RH  090%=      5-min Rain = 0
KRLS 260615Z 12007KT 19/17 A2997 RMK A01 T01940168  RH  090%=      5-min Rain = 0
KRLS 260620Z 12007KT 19/17 A2997 RMK A01 T01930168  RH  090%=      5-min Rain = 0
KRLS 260625Z 13007KT 19/17 A2997 RMK A01 T01930168  RH  090%=      5-min Rain = 0
KRLS 260630Z 13007KT 19/17 A2998 RMK A01 T01920167  RH  090%=      5-min Rain = 0
KRLS 260635Z 14007KT 19/17 A2998 RMK A01 T01910167  RH  090%=      5-min Rain = 0
KRLS 260640Z 14007KT 19/17 A2998 RMK A01 T01910167  RH  090%=      5-min Rain = 0
KRLS 260645Z 14007KT 19/17 A2998 RMK A01 T01910167  RH  090%=      5-min Rain = 0
KRLS 260650Z 14008KT 19/17 A2998 RMK A01 T01920168  RH  090%=      5-min Rain = 0
KRLS 260655Z 14007KT 19/17 A2998 RMK A01 T01910166  RH  089%=      5-min Rain = 0
KRLS 260700Z 14007KT 19/17 A2998 RMK A01 T01900165  RH  090%=      5-min Rain = 0
KRLS 260705Z 14007KT 19/17 A2997 RMK A01 T01890165  RH  090%=      5-min Rain = 0
KRLS 260710Z 14007KT 19/17 A2997 RMK A01 T01890166  RH  090%=      5-min Rain = 0
KRLS 260715Z 13008KT 19/17 A2997 RMK A01 T01890165  RH  090%=      5-min Rain = 0
KRLS 260720Z 13008KT 19/17 A2997 RMK A01 T01890166  RH  090%=      5-min Rain = 0
KRLS 260725Z 13007KT 19/17 A2998 RMK A01 T01890165  RH  090%=      5-min Rain = 0
KRLS 260730Z 14007KT 19/17 A2998 RMK A01 T01880165  RH  091%=      5-min Rain = 0
KRLS 260735Z 13008KT 19/17 A2998 RMK A01 T01880165  RH  091%=      5-min Rain = 0
KRLS 260740Z 13008KT 19/16 A2998 RMK A01 T01870164  RH  091%=      5-min Rain = 0
KRLS 260745Z 13008KT 19/16 A2998 RMK A01 T01870164  RH  091%=      5-min Rain = 0
KRLS 260750Z 13007KT 19/16 A2998 RMK A01 T01870164  RH  091%=      5-min Rain = 0
KRLS 260755Z 13008KT 19/17 A2998 RMK A01 T01880165  RH  091%=      5-min Rain = 0
KRLS 260800Z 13009KT 19/17 A2998 RMK A01 T01890165  RH  090%=      5-min Rain = 0
KRLS 260805Z 13009KT 19/16 A2998 RMK A01 T01890164  RH  090%=      5-min Rain = 0
KRLS 260810Z 14010KT 19/16 A2997 RMK A01 T01890164  RH  090%=      5-min Rain = 0
KRLS 260815Z 14010KT 19/16 A2997 RMK A01 T01890164  RH  090%=      5-min Rain = 0
KRLS 260820Z 14010KT 19/16 A2997 RMK A01 T01880164  RH  090%=      5-min Rain = 0
KRLS 260825Z 14009KT 19/16 A2997 RMK A01 T01860163  RH  091%=      5-min Rain = 0
KRLS 260830Z 14009KT 19/16 A2997 RMK A01 T01860163  RH  091%=      5-min Rain = 0
KRLS 260835Z 14009KT 19/16 A2997 RMK A01 T01870164  RH  091%=      5-min Rain = 0
KRLS 260840Z 14009KT 19/16 A2997 RMK A01 T01870163  RH  090%=      5-min Rain = 0
KRLS 260845Z 14009KT 19/16 A2997 RMK A01 T01870163  RH  090%=      5-min Rain = 0
KRLS 260850Z 14010KT 19/16 A2997 RMK A01 T01890164  RH  090%=      5-min Rain = 0
KRLS 260855Z 14010KT 19/16 A2997 RMK A01 T01890164  RH  090%=      5-min Rain = 0
KRLS 260900Z 14010KT 19/16 A2997 RMK A01 T01890164  RH  089%=      5-min Rain = 0
KRLS 260905Z 13009KT 19/16 A2997 RMK A01 T01890163  RH  089%=      5-min Rain = 0
KRLS 260910Z 14008KT 19/16 A2997 RMK A01 T01880163  RH  089%=      5-min Rain = 0
KRLS 260915Z 14008KT 19/16 A2997 RMK A01 T01880163  RH  090%=      5-min Rain = 0
KRLS 260920Z 14009KT 19/16 A2998 RMK A01 T01880163  RH  090%=      5-min Rain = 0
KRLS 260925Z 14008KT 19/16 A2998 RMK A01 T01880163  RH  090%=      5-min Rain = 0
KRLS 260930Z 14008KT 19/16 A2998 RMK A01 T01880163  RH  090%=      5-min Rain = 0
KRLS 260935Z 14008KT 19/16 A2998 RMK A01 T01890164  RH  090%=      5-min Rain = 0
KRLS 260940Z 14008KT 19/17 A2998 RMK A01 T01900165  RH  090%=      5-min Rain = 0
KRLS 260945Z 14009KT 19/17 A2998 RMK A01 T01910166  RH  090%=      5-min Rain = 0
KRLS 260950Z 14010KT 19/17 A2998 RMK A01 T01930168  RH  090%=      5-min Rain = 0
KRLS 260955Z 14009KT 19/17 A2998 RMK A01 T01940168  RH  089%=      5-min Rain = 0
KRLS 261000Z 14009KT 19/17 A2998 RMK A01 T01940169  RH  089%=      5-min Rain = 0
KRLS 261005Z 14009KT 20/17 A2998 RMK A01 T01950169  RH  089%=      5-min Rain = 0
KRLS 261010Z 14009KT 20/17 A2998 RMK A01 T01950169  RH  090%=      5-min Rain = 0
KRLS 261015Z 14009KT 20/17 A2998 RMK A01 T01950169  RH  090%=      5-min Rain = 0
KRLS 261020Z 14009KT 20/17 A2999 RMK A01 T01950170  RH  090%=      5-min Rain = 0
KRLS 261025Z 13009KT 20/17 A2998 RMK A01 T01950170  RH  090%=      5-min Rain = 0
KRLS 261030Z 14009KT 20/17 A2998 RMK A01 T01950170  RH  090%=      5-min Rain = 0
KRLS 261035Z 14009KT 20/17 A2999 RMK A01 T01950170  RH  090%=      5-min Rain = 0
KRLS 261040Z 14010KT 20/17 A2998 RMK A01 T01950170  RH  090%=      5-min Rain = 0
KRLS 261045Z 14010KT 20/17 A2998 RMK A01 T01950171  RH  090%=      5-min Rain = 0
KRLS 261050Z 14010KT 20/17 A2999 RMK A01 T01950171  RH  091%=      5-min Rain = 0
KRLS 261055Z 14010KT 20/17 A2999 RMK A01 T01950171  RH  091%=      5-min Rain = 0
KRLS 261100Z 14010KT 20/17 A2999 RMK A01 T01950171  RH  091%=      5-min Rain = 0
KRLS 261105Z 14009KT 20/17 A2999 RMK A01 T01950172  RH  091%=      5-min Rain = 0
KRLS 261110Z 14009KT 20/17 A2999 RMK A01 T01950172  RH  091%=      5-min Rain = 0
KRLS 261115Z 14009KT 20/17 A2999 RMK A01 T01950172  RH  091%=      5-min Rain = 0
KRLS 261120Z 14011KT 20/17 A2999 RMK A01 T01950172  RH  091%=      5-min Rain = 0
KRLS 261125Z 14010KT 20/17 A30 RMK A01 T01950172  RH  091%=      5-min Rain = 0
KRLS 261130Z 14010KT 20/17 A30 RMK A01 T01950172  RH  091%=      5-min Rain = 0
KRLS 261135Z 14010KT 20/17 A30 RMK A01 T01950173  RH  092%=      5-min Rain = 0
KRLS 261140Z 15010KT 19/17 A30 RMK A01 T01940173  RH  092%=      5-min Rain = 0
KRLS 261145Z 15010KT 19/17 A3001 RMK A01 T01940173  RH  092%=      5-min Rain = 0
KRLS 261150Z 15010KT 19/17 A3001 RMK A01 T01940173  RH  092%=      5-min Rain = 0
KRLS 261155Z 15009KT 19/17 A3001 RMK A01 T01940173  RH  092%=      5-min Rain = 0
KRLS 261200Z 15010KT 19/17 A3001 RMK A01 T01940173  RH  092%=      5-min Rain = 0
KRLS 261205Z 15009KT 19/17 A3001 RMK A01 T01940174  RH  092%=      5-min Rain = 0
KRLS 261210Z 15010KT 19/17 A3001 RMK A01 T01940174  RH  092%=      5-min Rain = 0
KRLS 261215Z 15010KT 20/17 A3001 RMK A01 T01950174  RH  092%=      5-min Rain = 0
KRLS 261220Z 15010KT 20/17 A3001 RMK A01 T01950174  RH  092%=      5-min Rain = 0
KRLS 261225Z 15010KT 19/17 A3001 RMK A01 T01940174  RH  093%=      5-min Rain = 0
KRLS 261230Z 16011KT 19/17 A3002 RMK A01 T01940174  RH  093%=      5-min Rain = 0
KRLS 261235Z 15011KT 20/17 A3002 RMK A01 T01950174  RH  093%=      5-min Rain = 0
KRLS 261240Z 15011KT 19/17 A3002 RMK A01 T01940174  RH  093%=      5-min Rain = 0
KRLS 261245Z 15011KT 19/18 A3002 RMK A01 T01940175  RH  093%=      5-min Rain = 0
KRLS 261250Z 15011KT 19/18 A3002 RMK A01 T01940175  RH  093%=      5-min Rain = 0
KRLS 261255Z 15011KT 19/18 A3002 RMK A01 T01940175  RH  094%=      5-min Rain = 0
KRLS 261300Z 15011KT 19/18 A3002 RMK A01 T01940176  RH  094%=      5-min Rain = 0
KRLS 261305Z 15010KT 19/18 A3002 RMK A01 T01940176  RH  094%=      5-min Rain = 0
KRLS 261310Z 15010KT 19/18 A3002 RMK A01 T01940177  RH  094%=      5-min Rain = 0
KRLS 261315Z 15011KT 19/18 A3002 RMK A01 T01940176  RH  094%=      5-min Rain = 0
KRLS 261320Z 15011KT 19/18 A3002 RMK A01 T01940177  RH  095%=      5-min Rain = 0
KRLS 261325Z 15011KT 19/18 A3002 RMK A01 T01940177  RH  095%=      5-min Rain = 0
KRLS 261330Z 15011KT 19/18 A3002 RMK A01 T01940177  RH  095%=      5-min Rain = 0
KRLS 261335Z 15011KT 19/18 A3002 RMK A01 T01940177  RH  095%=      5-min Rain = 0
KRLS 261340Z 15012KT 19/18 A3002 RMK A01 T01940177  RH  095%=      5-min Rain = 0
KRLS 261345Z 15011KT 19/18 A3002 RMK A01 T01940178  RH  095%=      5-min Rain = 0
KRLS 261350Z 15011KT 19/18 A3002 RMK A01 T01940178  RH  095%=      5-min Rain = 0
KRLS 261355Z 15010KT 19/18 A3002 RMK A01 T01940178  RH  095%=      5-min Rain = 0
KRLS 261400Z 15011KT 19/18 A3002 RMK A01 T01940178  RH  095%=      5-min Rain = 0
KRLS 261405Z 15010KT 19/18 A3002 RMK A01 T01930178  RH  095%=      5-min Rain = 0
KRLS 261410Z 14010KT 19/18 A3002 RMK A01 T01930177  RH  095%=      5-min Rain = 0
KRLS 261415Z 14011KT 19/18 A3003 RMK A01 T01930177  RH  095%=      5-min Rain = 0
KRLS 261420Z 14011KT 19/18 A3003 RMK A01 T01930177  RH  095%=      5-min Rain = 0
KRLS 261425Z 13012KT 19/18 A3003 RMK A01 T01930177  RH  095%=      5-min Rain = 0
KRLS 261430Z 13011KT 19/18 A3003 RMK A01 T01920176  RH  095%=      5-min Rain = 0
KRLS 261435Z 14013KT 19/18 A3003 RMK A01 T01920176  RH  095%=      5-min Rain = 0
KRLS 261440Z 14013KT 19/18 A3003 RMK A01 T01910175  RH  095%=      5-min Rain = 0
KRLS 261445Z 14010KT 19/18 A3004 RMK A01 T01920176  RH  095%=      5-min Rain = 0
KRLS 261450Z 14012KT 19/18 A3004 RMK A01 T01920175  RH  095%=      5-min Rain = 0
KRLS 261455Z 14013KT 19/18 A3004 RMK A01 T01910175  RH  095%=      5-min Rain = 0
KRLS 261500Z 14011KT 19/18 A3004 RMK A01 T01920175  RH  094%=      5-min Rain = 0
KRLS 261505Z 14012KT 19/18 A3004 RMK A01 T01930175  RH  094%=      5-min Rain = 0
KRLS 261510Z 14011KT 19/18 A3004 RMK A01 T01940176  RH  094%=      5-min Rain = 0
KRLS 261515Z 14011KT 19/18 A3004 RMK A01 T01930175  RH  094%=      5-min Rain = 0
KRLS 261520Z 14009KT 19/18 A3004 RMK A01 T01940176  RH  094%=      5-min Rain = 0
KRLS 261525Z 14010KT 20/18 A3003 RMK A01 T01950176  RH  094%=      5-min Rain = 0
KRLS 261530Z 14011KT 20/18 A3003 RMK A01 T01950176  RH  093%=      5-min Rain = 0
KRLS 261535Z 14011KT 20/18 A3003 RMK A01 T01950176  RH  093%=      5-min Rain = 0
KRLS 261540Z 15011KT 20/18 A3003 RMK A01 T01960176  RH  093%=      5-min Rain = 0
KRLS 261545Z 15012KT 20/18 A3003 RMK A01 T01970176  RH  093%=      5-min Rain = 0
KRLS 261550Z 15012KT 20/18 A3003 RMK A01 T01970175  RH  092%=      5-min Rain = 0
KRLS 261555Z 15012KT 20/18 A3003 RMK A01 T01970175  RH  092%=      5-min Rain = 0
KRLS 261600Z 15013KT 20/18 A3003 RMK A01 T01980175  RH  091%=      5-min Rain = 0
KRLS 261605Z 15012KT 20/18 A3003 RMK A01 T01990175  RH  091%=      5-min Rain = 0
KRLS 261610Z 14012KT 20/18 A3002 RMK A01 T02000175  RH  090%=      5-min Rain = 0
KRLS 261615Z 14012KT 20/18 A3002 RMK A01 T02010175  RH  090%=      5-min Rain = 0
KRLS 261620Z 14013KT 20/18 A3002 RMK A01 T02010175  RH  089%=      5-min Rain = 0
KRLS 261625Z 14013KT 20/18 A3002 RMK A01 T02010175  RH  089%=      5-min Rain = 0
KRLS 261630Z 14012KT 20/18 A3002 RMK A01 T02030176  RH  089%=      5-min Rain = 0
KRLS 261635Z 14013KT 20/18 A3002 RMK A01 T02030175  RH  088%=      5-min Rain = 0
KRLS 261640Z 14013KT 20/18 A3002 RMK A01 T02040175  RH  088%=      5-min Rain = 0
KRLS 261645Z 15014KT 20/17 A3002 RMK A01 T02040174  RH  087%=      5-min Rain = 0
KRLS 261650Z 15014KT 21/18 A3002 RMK A01 T02050175  RH  087%=      5-min Rain = 0
KRLS 261655Z 15014KT 21/18 A3003 RMK A01 T02050175  RH  087%=      5-min Rain = 0
KRLS 261700Z 15014KT 21/17 A3002 RMK A01 T02050174  RH  087%=      5-min Rain = 0
KRLS 261705Z 15012KT 21/17 A3003 RMK A01 T02050174  RH  087%=      5-min Rain = 0
KRLS 261710Z 15012G17KT 21/18 A3003 RMK A01 T02060175  RH  087%=      5-min Rain = 0
KRLS 261715Z 16011G16KT 21/18 A3003 RMK A01 T02070176  RH  087%=      5-min Rain = 0
KRLS 261720Z 17013KT 21/18 A3003 RMK A01 T02080175  RH  086%=      5-min Rain = 0
KRLS 261725Z 16013KT 21/17 A3003 RMK A01 T02080174  RH  085%=      5-min Rain = 0
KRLS 261730Z 16012KT 21/18 A3002 RMK A01 T02080175  RH  086%=      5-min Rain = 0
KRLS 261735Z 15012KT 21/17 A3002 RMK A01 T02080174  RH  085%=      5-min Rain = 0
KRLS 261740Z 16013KT 21/17 A3002 RMK A01 T02080174  RH  085%=      5-min Rain = 0
KRLS 261745Z 15014KT 21/17 A3002 RMK A01 T02080174  RH  085%=      5-min Rain = 0
KRLS 261750Z 16013KT 21/18 A3002 RMK A01 T02100175  RH  085%=      5-min Rain = 0
KRLS 261755Z 15013KT 21/17 A3002 RMK A01 T02100174  RH  084%=      5-min Rain = 0
KRLS 261800Z 15013KT 21/18 A3002 RMK A01 T02110175  RH  084%=      5-min Rain = 0
KRLS 261805Z 16013KT 21/18 A3002 RMK A01 T02110175  RH  084%=      5-min Rain = 0
KRLS 261810Z 16011KT 21/18 A3002 RMK A01 T02140177  RH  084%=      5-min Rain = 0
KRLS 261815Z 16012KT 21/18 A3002 RMK A01 T02140176  RH  083%=      5-min Rain = 0
KRLS 261820Z 16013G18KT 21/18 A3002 RMK A01 T02130175  RH  083%=      5-min Rain = 0
KRLS 261825Z 16012KT 21/18 A3002 RMK A01 T02140176  RH  084%=      5-min Rain = 0
KRLS 261830Z 16014G19KT 22/18 A3001 RMK A01 T02150176  RH  083%=      5-min Rain = 0
KRLS 261835Z 16014KT 22/18 A3001 RMK A01 T02180177  RH  082%=      5-min Rain = 0
KRLS 261840Z 15015KT 22/18 A3001 RMK A01 T02150176  RH  082%=      5-min Rain = 0
KRLS 261845Z 15014KT 22/18 A3002 RMK A01 T02150177  RH  083%=      5-min Rain = 0
KRLS 261850Z 16013G18KT 22/18 A3002 RMK A01 T02170178  RH  083%=      5-min Rain = 0
KRLS 261855Z 16015G20KT 22/18 A3002 RMK A01 T02170176  RH  082%=      5-min Rain = 0
KRLS 261900Z 17015G20KT 22/18 A3002 RMK A01 T02170176  RH  082%=      5-min Rain = 0
KRLS 261905Z 16016KT 22/18 A3002 RMK A01 T02180176  RH  081%=      5-min Rain = 0
KRLS 261910Z 17015KT 22/18 A3002 RMK A01 T02170175  RH  081%=      5-min Rain = 0
KRLS 261915Z 17014KT 22/18 A3002 RMK A01 T02180176  RH  081%=      5-min Rain = 0
KRLS 261920Z 18013G18KT 22/18 A3002 RMK A01 T02180175  RH  081%=      5-min Rain = 0
KRLS 261925Z 18013KT 22/18 A3002 RMK A01 T02180175  RH  081%=      5-min Rain = 0
KRLS 261930Z 18013KT 22/18 A3003 RMK A01 T02190176  RH  081%=      5-min Rain = 0
KRLS 261935Z 18013KT 22/18 A3003 RMK A01 T02180176  RH  081%=      5-min Rain = 0
KRLS 261940Z 18012KT 22/18 A3003 RMK A01 T02160177  RH  082%=      5-min Rain = 0
KRLS 261945Z 18012KT 22/18 A3003 RMK A01 T02160177  RH  082%=      5-min Rain = 0
KRLS 261950Z 17012KT 21/18 A3003 RMK A01 T02140177  RH  084%=      5-min Rain = 0
KRLS 261955Z 17011KT 21/18 A3003 RMK A01 T02110178  RH  086%=      5-min Rain = 0
KRLS 262000Z 17011G16KT 21/18 A3003 RMK A01 T02120179  RH  086%=      5-min Rain = 0
KRLS 262005Z 17011KT 21/18 A3003 RMK A01 T02140179  RH  085%=      5-min Rain = 0
KRLS 262010Z 16011KT 22/18 A3002 RMK A01 T02150180  RH  085%=      5-min Rain = 0
KRLS 262015Z 16010KT 22/18 A3002 RMK A01 T02180181  RH  084%=      5-min Rain = 0
KRLS 262020Z 16011KT 22/18 A3002 RMK A01 T02210181  RH  082%=      5-min Rain = 0
KRLS 262025Z 16012KT 22/18 A3002 RMK A01 T02220180  RH  081%=      5-min Rain = 0
KRLS 262030Z 16013KT 22/18 A3001 RMK A01 T02220180  RH  081%=      5-min Rain = 0
KRLS 262035Z 15014KT 22/18 A3001 RMK A01 T02240181  RH  081%=      5-min Rain = 0
KRLS 262040Z 16013KT 22/18 A3001 RMK A01 T02240181  RH  081%=      5-min Rain = 0
KRLS 262045Z 15012KT 22/18 A3001 RMK A01 T02240181  RH  081%=      5-min Rain = 0
KRLS 262050Z 15013KT 23/18 A3001 RMK A01 T02250183  RH  082%=      5-min Rain = 0
KRLS 262055Z 14012KT 23/19 A3001 RMK A01 T02250185  RH  082%=      5-min Rain = 0
KRLS 262100Z 14013KT 22/18 A3001 RMK A01 T02230184  RH  083%=      5-min Rain = 0
KRLS 262105Z 14014KT 22/19 A30 RMK A01 T02240185  RH  083%=      5-min Rain = 0
KRLS 262110Z 14013G18KT 23/19 A30 RMK A01 T02250185  RH  083%=      5-min Rain = 0
KRLS 262115Z 14014KT 23/18 A30 RMK A01 T02250184  RH  082%=      5-min Rain = 0
KRLS 262120Z 15013G18KT 23/18 A30 RMK A01 T02250183  RH  082%=      5-min Rain = 0
KRLS 262125Z 14013KT 23/19 A2999 RMK A01 T02270185  RH  081%=      5-min Rain = 0
KRLS 262130Z 14015KT 23/19 A2998 RMK A01 T02270185  RH  081%=      5-min Rain = 0
KRLS 262135Z 14016KT 23/18 A2998 RMK A01 T02260184  RH  081%=      5-min Rain = 0
KRLS 262140Z 14015KT 23/19 A2998 RMK A01 T02270186  RH  082%=      5-min Rain = 0
KRLS 262145Z 14016KT 23/19 A2997 RMK A01 T02280185  RH  081%=      5-min Rain = 0
KRLS 262150Z 14016G21KT 23/19 A2997 RMK A01 T02270185  RH  082%=      5-min Rain = 0
KRLS 262155Z 14017KT 23/19 A2997 RMK A01 T02270185  RH  082%=      5-min Rain = 0
KRLS 262200Z 14018KT 23/19 A2996 RMK A01 T02260185  RH  082%=      5-min Rain = 0
KRLS 262205Z 14016G21KT 23/19 A2996 RMK A01 T02260185  RH  082%=      5-min Rain = 0
KRLS 262210Z 13018KT 23/19 A2995 RMK A01 T02260185  RH  082%=      5-min Rain = 0
KRLS 262215Z 13016G21KT 23/19 A2995 RMK A01 T02260186  RH  083%=      5-min Rain = 0
KRLS 262220Z 13018G23KT 23/19 A2994 RMK A01 T02260185  RH  082%=      5-min Rain = 0
KRLS 262225Z 13018G24KT 23/19 A2993 RMK A01 T02250185  RH  083%=      5-min Rain = 0
KRLS 262230Z 13019G24KT 23/18 A2992 RMK A01 T02250184  RH  082%=      5-min Rain = 0
KRLS 262235Z 12020G25KT 23/18 A2991 RMK A01 T02250184  RH  082%=      5-min Rain = 0
KRLS 262240Z 12020G26KT 23/18 A2991 RMK A01 T02250184  RH  082%=      5-min Rain = 0
KRLS 262245Z 13019G25KT 23/19 A2992 RMK A01 T02250185  RH  082%=      5-min Rain = 0
KRLS 262250Z 14017G23KT 23/19 A2993 RMK A01 T02250185  RH  083%=      5-min Rain = 0
KRLS 262255Z 14017KT 23/18 A2993 RMK A01 T02250184  RH  082%=      5-min Rain = 0
KRLS 262300Z 14014KT 23/19 A2993 RMK A01 T02270186  RH  082%=      5-min Rain = 0
KRLS 262305Z 14016G21KT 23/19 A2993 RMK A01 T02270186  RH  081%=      5-min Rain = 0
KRLS 262310Z 14016KT 23/19 A2993 RMK A01 T02280185  RH  081%=      5-min Rain = 0
KRLS 262315Z 14017KT 23/19 A2992 RMK A01 T02280185  RH  081%=      5-min Rain = 0
KRLS 262320Z 13018G23KT 23/19 A2991 RMK A01 T02280185  RH  081%=      5-min Rain = 0
KRLS 262325Z 13019KT 23/18 A299 RMK A01 T02270184  RH  081%=      5-min Rain = 0
KRLS 262330Z 12017G22KT 23/18 A2989 RMK A01 T02260184  RH  082%=      5-min Rain = 0
KRLS 262335Z 13019KT 23/19 A2989 RMK A01 T02290186  RH  081%=      5-min Rain = 0
KRLS 262340Z 13018G23KT 23/19 A299 RMK A01 T02310186  RH  080%=      5-min Rain = 0
KRLS 262345Z 13017KT 23/19 A299 RMK A01 T02310186  RH  080%=      5-min Rain = 0
KRLS 262350Z 13017G23KT 23/19 A299 RMK A01 T02320186  RH  080%=      5-min Rain = 0
KRLS 262355Z 14016KT 23/19 A2991 RMK A01 T02320187  RH  080%=      5-min Rain = 0
KRLS 270000Z 14018G24KT 23/19 A2991 RMK A01 T02330187  RH  079%=      5-min Rain = 0
KRLS 270005Z 14018G23KT 24/19 A299 RMK A01 T02360188  RH  079%=      5-min Rain = 0
KRLS 270010Z 14020G26KT 24/19 A299 RMK A01 T02380187  RH  078%=      5-min Rain = 0
KRLS 270015Z 14019G24KT 24/19 A2989 RMK A01 T02390187  RH  077%=      5-min Rain = 0
KRLS 270020Z 14020G25KT 24/19 A2989 RMK A01 T02380185  RH  076%=      5-min Rain = 0
KRLS 270025Z 14020G26KT 24/18 A2989 RMK A01 T02380184  RH  076%=      5-min Rain = 0
KRLS 270030Z 15019G26KT 24/18 A299 RMK A01 T02350183  RH  077%=      5-min Rain = 0
KRLS 270035Z 15020G25KT 23/18 A2991 RMK A01 T02340182  RH  077%=      5-min Rain = 0
KRLS 270040Z 15019G25KT 23/18 A299 RMK A01 T02320182  RH  077%=      5-min Rain = 0
KRLS 270045Z 15020KT 23/18 A2989 RMK A01 T02310181  RH  078%=      5-min Rain = 0
KRLS 270050Z 15018G23KT 23/18 A299 RMK A01 T02290181  RH  078%=      5-min Rain = 0
KRLS 270055Z 15017G22KT 23/18 A299 RMK A01 T02280180  RH  079%=      5-min Rain = 0
KRLS 270100Z 15015G20KT 23/18 A299 RMK A01 T02270180  RH  079%=      5-min Rain = 0
KRLS 270105Z 15015G20KT 23/18 A2989 RMK A01 T02260181  RH  080%=      5-min Rain = 0
KRLS 270110Z 15016G22KT 23/18 A2989 RMK A01 T02260180  RH  079%=      5-min Rain = 0
KRLS 270115Z 15015KT 23/18 A2989 RMK A01 T02260180  RH  079%=      5-min Rain = 0
KRLS 270120Z 15015KT 22/18 A2989 RMK A01 T02240179  RH  080%=      5-min Rain = 0
KRLS 270125Z 15015G20KT 22/18 A2989 RMK A01 T02230179  RH  080%=      5-min Rain = 0
KRLS 270130Z 15015KT 22/18 A2989 RMK A01 T02220178  RH  080%=      5-min Rain = 0
KRLS 270135Z 14014KT 22/18 A2989 RMK A01 T02210178  RH  081%=      5-min Rain = 0
KRLS 270140Z 14013KT 22/18 A2989 RMK A01 T02200177  RH  081%=      5-min Rain = 0
KRLS 270145Z 14013G18KT 22/18 A2989 RMK A01 T02190177  RH  081%=      5-min Rain = 0
KRLS 270150Z 14014KT 22/18 A2989 RMK A01 T02180176  RH  081%=      5-min Rain = 0
KRLS 270155Z 14014KT 22/18 A2988 RMK A01 T02180176  RH  081%=      5-min Rain = 0
KRLS 270200Z 15013KT 22/18 A2989 RMK A01 T02160175  RH  081%=      5-min Rain = 0
KRLS 270205Z 15015KT 22/18 A2988 RMK A01 T02170175  RH  081%=      5-min Rain = 0
KRLS 270210Z 15016KT 22/17 A2988 RMK A01 T02170174  RH  080%=      5-min Rain = 0
KRLS 270215Z 15015KT 22/17 A2988 RMK A01 T02170173  RH  080%=      5-min Rain = 0
KRLS 270220Z 15015KT 22/17 A2988 RMK A01 T02160172  RH  080%=      5-min Rain = 0
KRLS 270225Z 15014KT 22/17 A2989 RMK A01 T02160172  RH  080%=      5-min Rain = 0
KRLS 270230Z 15014KT 22/17 A2989 RMK A01 T02150172  RH  080%=      5-min Rain = 0
KRLS 270235Z 15014KT 21/17 A299 RMK A01 T02140171  RH  080%=      5-min Rain = 0
KRLS 270240Z 15013KT 21/17 A299 RMK A01 T02130171  RH  081%=      5-min Rain = 0
KRLS 270245Z 15012KT 21/17 A299 RMK A01 T02120171  RH  081%=      5-min Rain = 0
KRLS 270250Z 15011KT 21/17 A2991 RMK A01 T02110170  RH  081%=      5-min Rain = 0
KRLS 270255Z 15011KT 21/17 A2991 RMK A01 T02110170  RH  081%=      5-min Rain = 0
KRLS 270300Z 15011KT 21/17 A2991 RMK A01 T02110169  RH  081%=      5-min Rain = 0
KRLS 270305Z 15011KT 21/17 A2991 RMK A01 T02100169  RH  081%=      5-min Rain = 0
KRLS 270310Z 15011KT 21/17 A2991 RMK A01 T02100169  RH  081%=      5-min Rain = 0
KRLS 270315Z 15010KT 21/17 A2991 RMK A01 T02090168  RH  081%=      5-min Rain = 0
KRLS 270320Z 14010KT 21/17 A2991 RMK A01 T02080168  RH  082%=      5-min Rain = 0
KRLS 270325Z 14010KT 21/17 A2991 RMK A01 T02070168  RH  082%=      5-min Rain = 0
KRLS 270330Z 14010KT 21/17 A2991 RMK A01 T02070168  RH  082%=      5-min Rain = 0
KRLS 270335Z 14011KT 21/17 A2991 RMK A01 T02060168  RH  083%=      5-min Rain = 0
KRLS 270340Z 14011KT 21/17 A299 RMK A01 T02050168  RH  083%=      5-min Rain = 0
KRLS 270345Z 14010KT 20/17 A299 RMK A01 T02040167  RH  084%=      5-min Rain = 0
KRLS 270350Z 14010KT 20/17 A299 RMK A01 T02030167  RH  084%=      5-min Rain = 0
KRLS 270355Z 14010KT 20/17 A2991 RMK A01 T02030167  RH  084%=      5-min Rain = 0
KRLS 270400Z 14010KT 20/17 A2991 RMK A01 T02020167  RH  084%=      5-min Rain = 0
KRLS 270405Z 14011KT 20/17 A299 RMK A01 T02020167  RH  084%=      5-min Rain = 0
KRLS 270410Z 14011KT 20/17 A299 RMK A01 T02010166  RH  085%=      5-min Rain = 0
KRLS 270415Z 14010KT 20/17 A299 RMK A01 T02010166  RH  085%=      5-min Rain = 0
KRLS 270420Z 14010KT 20/17 A2991 RMK A01 T02020166  RH  084%=      5-min Rain = 0
KRLS 270425Z 14010KT 20/17 A299 RMK A01 T02010166  RH  084%=      5-min Rain = 0
KRLS 270430Z 14010KT 20/17 A299 RMK A01 T02010166  RH  084%=      5-min Rain = 0
KRLS 270435Z 14010KT 20/17 A299 RMK A01 T02000165  RH  085%=      5-min Rain = 0
KRLS 270440Z 14011KT 20/17 A299 RMK A01 T02000166  RH  085%=      5-min Rain = 0
KRLS 270445Z 14011KT 20/17 A299 RMK A01 T02000165  RH  085%=      5-min Rain = 0
KRLS 270450Z 14010KT 20/17 A299 RMK A01 T02000165  RH  085%=      5-min Rain = 0
KRLS 270455Z 14010KT 20/17 A299 RMK A01 T01990165  RH  085%=      5-min Rain = 0

Page generated in 0.0618 seconds.